Time;durP1;ratioP1;P1;durP2;ratioP2;P2;SDS_P1;SDS_P2;PMS_P1;PMS_P2;Temp;Humidity;BMP_temperature;BMP_pressure;BME280_temperature;BME280_humidity;BME280_pressure;Samples;Min_cycle;Max_cycle;Signal;HPM_P1;HPM_P2
2021/01/14 00:02:23;;;;;;;3.78;2.78;;;1.00;99.90;;;;;;5102385;28;20232;-82
2021/01/14 00:04:50;;;;;;;4.47;2.67;;;1.00;99.90;;;;;;5104065;28;20288;-82
2021/01/14 00:07:16;;;;;;;2.63;2.42;;;0.90;99.90;;;;;;5101852;28;20264;-82
2021/01/14 00:09:43;;;;;;;3.25;2.85;;;1.00;99.90;;;;;;5100799;28;20201;-81
2021/01/14 00:12:10;;;;;;;4.50;3.20;;;0.90;99.90;;;;;;5098884;28;20198;-81
2021/01/14 00:14:38;;;;;;;2.95;2.75;;;0.90;99.90;;;;;;5097197;28;20541;-83
2021/01/14 00:17:04;;;;;;;6.97;3.33;;;0.90;99.90;;;;;;5077280;28;606621;-82
2021/01/14 00:19:30;;;;;;;7.00;3.10;;;0.70;99.90;;;;;;5116098;22;20325;-82
2021/01/14 00:21:57;;;;;;;4.30;3.33;;;0.60;99.90;;;;;;5101764;28;20668;-82
2021/01/14 00:24:23;;;;;;;6.68;3.08;;;0.50;99.90;;;;;;5103118;28;20273;-80
2021/01/14 00:26:49;;;;;;;7.38;3.10;;;0.40;99.90;;;;;;5102818;28;20197;-81
2021/01/14 00:29:17;;;;;;;5.07;2.80;;;0.50;99.90;;;;;;5101041;28;20747;-81
2021/01/14 00:31:44;;;;;;;4.28;3.88;;;0.50;99.90;;;;;;5101062;28;20236;-81
2021/01/14 00:34:11;;;;;;;4.38;4.05;;;0.50;99.90;;;;;;5101980;28;20224;-82
2021/01/14 00:39:19;;;;;;;5.72;3.83;;;0.50;99.90;;;;;;5101667;28;20293;-81
2021/01/14 00:41:45;;;;;;;5.95;4.20;;;0.40;99.90;;;;;;5102213;28;20258;-81
2021/01/14 00:44:12;;;;;;;4.55;3.60;;;0.40;99.90;;;;;;5101647;28;20198;-80
2021/01/14 00:46:38;;;;;;;5.60;3.30;;;0.50;99.90;;;;;;5100142;28;20733;-81
2021/01/14 00:49:05;;;;;;;4.80;3.17;;;0.50;99.90;;;;;;5100698;28;20232;-81
2021/01/14 00:51:33;;;;;;;3.95;3.55;;;0.50;99.90;;;;;;5101203;28;20269;-81
2021/01/14 00:54:00;;;;;;;7.35;3.70;;;0.50;99.90;;;;;;5100348;28;20198;-81
2021/01/14 00:56:31;;;;;;;4.38;3.38;;;0.60;99.90;;;;;;5101950;28;20204;-81
2021/01/14 00:58:57;;;;;;;3.95;3.42;;;0.60;99.90;;;;;;5106465;28;20230;-84
2021/01/14 01:01:24;;;;;;;3.80;3.35;;;0.60;99.90;;;;;;5107077;28;20213;-83
2021/01/14 01:03:51;;;;;;;4.35;3.00;;;0.70;99.90;;;;;;5106720;28;20232;-83
2021/01/14 01:06:19;;;;;;;4.70;3.70;;;0.60;99.90;;;;;;5108344;28;20209;-82
2021/01/14 01:08:46;;;;;;;4.32;3.08;;;0.60;99.90;;;;;;5106749;28;20244;-84
2021/01/14 01:11:12;;;;;;;2.67;2.47;;;0.60;99.90;;;;;;5107782;28;20223;-83
2021/01/14 01:13:38;;;;;;;3.17;2.97;;;0.70;99.90;;;;;;5107095;28;20202;-83
2021/01/14 01:16:05;;;;;;;3.85;3.30;;;0.70;99.90;;;;;;5108587;28;20228;-82
2021/01/14 01:18:33;;;;;;;3.65;3.10;;;0.70;99.90;;;;;;5107011;28;20225;-83
2021/01/14 01:20:59;;;;;;;3.72;3.30;;;0.70;99.90;;;;;;5108339;28;20202;-82
2021/01/14 01:23:27;;;;;;;3.33;2.65;;;0.70;99.90;;;;;;5107266;28;20772;-83
2021/01/14 01:25:53;;;;;;;2.72;2.53;;;0.70;99.90;;;;;;5107812;28;20229;-83
2021/01/14 01:28:19;;;;;;;3.10;2.90;;;0.80;99.90;;;;;;5106178;28;20221;-83
2021/01/14 01:30:45;;;;;;;3.25;2.97;;;0.80;99.90;;;;;;5107074;28;20202;-83
2021/01/14 01:33:12;;;;;;;4.47;3.00;;;0.90;99.90;;;;;;5106270;28;20193;-83
2021/01/14 01:35:38;;;;;;;3.25;2.95;;;0.70;99.90;;;;;;5106784;28;20284;-83
2021/01/14 01:38:04;;;;;;;4.05;3.35;;;0.80;99.90;;;;;;5106780;28;20288;-83
2021/01/14 01:40:32;;;;;;;3.88;2.95;;;0.80;99.90;;;;;;5106059;28;20681;-83
2021/01/14 01:42:59;;;;;;;3.30;3.00;;;0.80;99.90;;;;;;5104255;28;20285;-84
2021/01/14 01:45:26;;;;;;;8.13;3.00;;;0.70;99.90;;;;;;5104947;28;20234;-83
2021/01/14 01:47:52;;;;;;;2.22;2.10;;;0.70;99.90;;;;;;5106172;28;20221;-83
2021/01/14 01:50:20;;;;;;;3.95;2.60;;;0.60;99.90;;;;;;5105811;28;20197;-83
2021/01/14 01:52:48;;;;;;;3.42;3.13;;;0.70;99.90;;;;;;5109335;28;20198;-83
2021/01/14 01:55:15;;;;;;;2.63;2.40;;;0.60;99.90;;;;;;5107221;28;20288;-83
2021/01/14 01:57:45;;;;;;;3.00;2.80;;;0.70;99.90;;;;;;5104258;28;20204;-85
2021/01/14 02:00:12;;;;;;;2.90;2.70;;;0.70;99.90;;;;;;5103369;28;20202;-84
2021/01/14 02:02:39;;;;;;;2.65;2.47;;;0.70;99.90;;;;;;5103903;28;20218;-82
2021/01/14 02:05:06;;;;;;;2.95;2.13;;;0.80;99.90;;;;;;5105510;28;20233;-83
2021/01/14 02:07:47;;;;;;;3.85;2.20;;;0.80;99.90;;;;;;5102987;28;20233;-83
2021/01/14 02:10:21;;;;;;;1.70;1.60;;;0.90;99.90;;;;;;5104347;28;20186;-83
2021/01/14 02:13:01;;;;;;;1.75;1.60;;;0.80;99.90;;;;;;5104887;28;20276;-82
2021/01/14 02:15:28;;;;;;;1.58;1.45;;;0.90;99.90;;;;;;5105728;28;20186;-82
2021/01/14 02:17:54;;;;;;;1.92;1.73;;;0.80;99.90;;;;;;5104229;28;20233;-81
2021/01/14 02:20:22;;;;;;;2.63;1.88;;;0.80;99.90;;;;;;5105129;28;20190;-83
2021/01/14 02:22:58;;;;;;;1.67;1.58;;;0.80;99.90;;;;;;5104285;28;20225;-82
2021/01/14 02:25:29;;;;;;;1.08;0.98;;;0.80;99.90;;;;;;5104898;28;20280;-83
2021/01/14 02:27:57;;;;;;;1.02;1.02;;;0.80;99.90;;;;;;5105044;28;20253;-83
2021/01/14 02:30:24;;;;;;;1.42;1.33;;;0.80;99.90;;;;;;5104948;28;20213;-83
2021/01/14 02:32:51;;;;;;;1.30;1.20;;;0.80;99.90;;;;;;5104826;28;20194;-82
2021/01/14 02:35:17;;;;;;;0.93;0.93;;;0.80;99.90;;;;;;5104115;28;20288;-82
2021/01/14 02:37:44;;;;;;;1.35;1.25;;;0.80;99.90;;;;;;5103795;28;20234;-83
2021/01/14 02:40:11;;;;;;;1.20;1.20;;;0.80;99.90;;;;;;5103522;28;20197;-84
2021/01/14 02:42:37;;;;;;;1.40;1.30;;;0.80;99.90;;;;;;5103788;28;20221;-83
2021/01/14 02:45:06;;;;;;;1.60;1.50;;;0.80;99.90;;;;;;5103928;28;20205;-83
2021/01/14 02:47:36;;;;;;;1.88;1.77;;;0.90;99.90;;;;;;5103866;28;20243;-83
2021/01/14 02:50:05;;;;;;;1.85;1.75;;;0.80;99.90;;;;;;5102951;28;20193;-84
2021/01/14 02:52:35;;;;;;;1.70;1.60;;;0.90;99.90;;;;;;5103551;28;20251;-82
2021/01/14 02:55:04;;;;;;;2.10;1.90;;;0.90;99.90;;;;;;5103737;28;20202;-83
2021/01/14 02:57:31;;;;;;;2.78;2.00;;;0.90;99.90;;;;;;5102794;28;20292;-82
2021/01/14 03:00:00;;;;;;;2.10;2.00;;;0.90;99.90;;;;;;5103744;28;20201;-84
2021/01/14 03:02:28;;;;;;;1.92;1.77;;;0.80;99.90;;;;;;5103500;28;20228;-84
2021/01/14 03:04:54;;;;;;;2.22;2.10;;;0.80;99.90;;;;;;5103218;28;20205;-83
2021/01/14 03:07:21;;;;;;;2.30;2.10;;;0.90;99.90;;;;;;5102867;28;20761;-83
2021/01/14 03:09:47;;;;;;;2.40;2.20;;;0.90;99.90;;;;;;5103199;28;20225;-82
2021/01/14 03:12:13;;;;;;;1.90;1.80;;;0.90;99.90;;;;;;5103939;28;20689;-83
2021/01/14 03:14:39;;;;;;;2.78;2.58;;;0.90;99.90;;;;;;5103202;28;20227;-83
2021/01/14 03:17:06;;;;;;;2.63;2.10;;;1.00;99.90;;;;;;5103394;28;20204;-83
2021/01/14 03:19:33;;;;;;;2.35;2.25;;;1.00;99.90;;;;;;5114872;28;20256;-83
2021/01/14 03:22:00;;;;;;;4.28;3.00;;;0.90;99.90;;;;;;5117208;28;20261;-83
2021/01/14 03:24:27;;;;;;;2.83;2.63;;;0.90;99.90;;;;;;5116712;28;20194;-83
2021/01/14 03:26:53;;;;;;;4.72;3.22;;;0.90;99.90;;;;;;5110905;28;20205;-84
2021/01/14 03:29:20;;;;;;;3.63;3.33;;;1.00;99.90;;;;;;5107606;28;20247;-83
2021/01/14 03:31:46;;;;;;;2.95;2.75;;;1.00;99.90;;;;;;5104561;28;20665;-82
2021/01/14 03:34:12;;;;;;;2.47;2.28;;;1.00;99.90;;;;;;5103546;28;20654;-83
2021/01/14 03:36:56;;;;;;;3.40;3.10;;;1.00;99.90;;;;;;5103080;28;20197;-83
2021/01/14 03:39:24;;;;;;;4.53;3.03;;;1.00;99.90;;;;;;5103050;28;20227;-83
2021/01/14 03:41:51;;;;;;;6.95;3.13;;;1.10;99.90;;;;;;5103384;28;20206;-83
2021/01/14 03:44:17;;;;;;;3.47;3.17;;;1.00;99.90;;;;;;5102876;28;20221;-83
2021/01/14 03:46:46;;;;;;;3.85;3.55;;;1.10;99.90;;;;;;5103016;28;20201;-83
2021/01/14 03:49:12;;;;;;;4.00;3.55;;;1.10;99.90;;;;;;5102060;28;20222;-83
2021/01/14 03:51:40;;;;;;;4.65;3.70;;;1.10;99.90;;;;;;5102113;28;20548;-84
2021/01/14 03:54:07;;;;;;;3.60;3.30;;;1.00;99.90;;;;;;5102648;28;20209;-83
2021/01/14 03:56:37;;;;;;;3.90;3.50;;;1.00;99.90;;;;;;5102057;28;20201;-84
2021/01/14 03:59:04;;;;;;;3.90;3.60;;;1.10;99.90;;;;;;5102058;28;20229;-83
2021/01/14 04:01:30;;;;;;;3.78;3.33;;;1.10;99.90;;;;;;5102438;28;20227;-83
2021/01/14 04:03:57;;;;;;;3.60;3.30;;;1.10;99.90;;;;;;5101768;28;20224;-83
2021/01/14 04:06:31;;;;;;;6.30;3.90;;;1.10;99.90;;;;;;5102120;28;20201;-82
2021/01/14 04:08:59;;;;;;;3.67;3.38;;;1.20;99.90;;;;;;5102261;28;20240;-84
2021/01/14 04:11:25;;;;;;;4.97;4.40;;;1.10;99.90;;;;;;5103060;28;20433;-82
2021/01/14 04:13:52;;;;;;;5.50;4.78;;;1.10;99.90;;;;;;5103210;28;20277;-83
2021/01/14 04:16:18;;;;;;;5.20;3.50;;;1.20;99.90;;;;;;5103782;28;20204;-83
2021/01/14 04:18:45;;;;;;;4.00;3.67;;;1.20;99.90;;;;;;5102110;28;20298;-83
2021/01/14 04:21:13;;;;;;;4.50;3.75;;;1.20;99.90;;;;;;5101826;28;20212;-83
2021/01/14 04:23:39;;;;;;;6.75;4.22;;;1.20;99.90;;;;;;5102669;28;20307;-83
2021/01/14 04:26:07;;;;;;;6.60;4.30;;;1.20;99.90;;;;;;5105872;28;20462;-83
2021/01/14 04:28:33;;;;;;;7.45;4.55;;;1.20;99.90;;;;;;5110976;28;20475;-83
2021/01/14 04:31:00;;;;;;;5.00;4.50;;;1.30;99.90;;;;;;5104355;28;20220;-82
2021/01/14 04:33:26;;;;;;;4.50;3.95;;;1.30;99.90;;;;;;5106503;28;20261;-84
2021/01/14 04:35:55;;;;;;;5.63;4.55;;;1.30;99.90;;;;;;5110170;28;20741;-83
2021/01/14 04:38:22;;;;;;;6.25;4.50;;;1.30;99.90;;;;;;5107212;28;20744;-82
2021/01/14 04:40:55;;;;;;;7.07;5.00;;;1.30;99.90;;;;;;5107261;28;20287;-83
2021/01/14 04:43:23;;;;;;;7.80;5.43;;;1.30;99.90;;;;;;5106781;28;20452;-82
2021/01/14 04:45:52;;;;;;;5.85;5.20;;;1.30;99.90;;;;;;5107136;28;20201;-83
2021/01/14 04:48:20;;;;;;;6.18;4.65;;;1.30;99.90;;;;;;5106119;28;20249;-83
2021/01/14 04:50:48;;;;;;;7.50;5.00;;;1.40;99.90;;;;;;5106570;28;20357;-83
2021/01/14 04:53:14;;;;;;;7.38;5.22;;;1.40;99.90;;;;;;5106797;28;20296;-82
2021/01/14 04:55:45;;;;;;;7.10;5.28;;;1.40;99.90;;;;;;5107999;28;20288;-83
2021/01/14 04:58:17;;;;;;;7.55;5.82;;;1.40;99.90;;;;;;5107140;28;20229;-83
2021/01/14 05:00:48;;;;;;;7.45;5.38;;;1.40;99.90;;;;;;5111299;28;20211;-82
2021/01/14 05:03:21;;;;;;;9.57;5.65;;;1.40;99.90;;;;;;5109506;28;20599;-83
2021/01/14 05:05:48;;;;;;;8.90;5.65;;;1.40;99.90;;;;;;5119742;28;20193;-83
2021/01/14 05:08:16;;;;;;;10.25;6.78;;;1.40;99.90;;;;;;5118917;28;20206;-83
2021/01/14 05:10:43;;;;;;;9.95;7.18;;;1.50;99.90;;;;;;5122047;28;20189;-82
2021/01/14 05:13:10;;;;;;;11.63;6.63;;;1.40;99.90;;;;;;5122217;28;20229;-81
2021/01/14 05:15:38;;;;;;;15.35;8.15;;;1.40;99.90;;;;;;5110025;28;20261;-82
2021/01/14 05:18:08;;;;;;;11.98;8.48;;;1.40;99.90;;;;;;5102888;28;20240;-82
2021/01/14 05:20:35;;;;;;;13.95;7.90;;;1.40;99.90;;;;;;5106491;28;20433;-83
2021/01/14 05:23:03;;;;;;;10.88;7.43;;;1.40;99.90;;;;;;5106392;28;20312;-82
2021/01/14 05:25:29;;;;;;;13.90;8.23;;;1.40;99.90;;;;;;5107214;28;20213;-82
2021/01/14 05:28:09;;;;;;;9.18;6.60;;;1.40;99.90;;;;;;5107054;28;20470;-83
2021/01/14 05:30:36;;;;;;;45.80;27.90;;;1.50;99.90;;;;;;5106833;28;20433;-83
2021/01/14 05:33:03;;;;;;;25.88;16.00;;;1.60;99.90;;;;;;5106409;28;20441;-84
2021/01/14 05:35:31;;;;;;;24.75;15.82;;;1.80;99.90;;;;;;5106317;28;20455;-82
2021/01/14 05:38:03;;;;;;;10.48;6.93;;;1.70;99.90;;;;;;5106638;28;20967;-83
2021/01/14 05:40:30;;;;;;;13.07;8.82;;;1.60;99.90;;;;;;5107498;28;20186;-82
2021/01/14 05:43:01;;;;;;;14.30;8.93;;;1.60;99.90;;;;;;5106111;28;20217;-82
2021/01/14 05:45:27;;;;;;;10.52;7.13;;;1.70;99.90;;;;;;5106336;28;20201;-82
2021/01/14 05:48:07;;;;;;;9.88;7.32;;;1.60;99.90;;;;;;5106719;28;20229;-82
2021/01/14 05:50:43;;;;;;;15.80;10.23;;;1.60;99.90;;;;;;5106764;28;20253;-82
2021/01/14 05:53:14;;;;;;;12.68;8.48;;;1.60;99.90;;;;;;5105903;28;20188;-82
2021/01/14 05:55:42;;;;;;;17.45;9.57;;;1.60;99.90;;;;;;5106270;28;20619;-82
2021/01/14 05:58:12;;;;;;;14.80;10.05;;;1.50;99.90;;;;;;5105106;28;20226;-82
2021/01/14 06:00:43;;;;;;;17.90;11.18;;;1.50;99.90;;;;;;5111219;28;20269;-82
2021/01/14 06:03:23;;;;;;;15.20;9.85;;;1.50;99.90;;;;;;5111942;28;20241;-82
2021/01/14 06:05:51;;;;;;;13.95;9.43;;;1.60;99.90;;;;;;5102205;28;20259;-83
2021/01/14 06:08:25;;;;;;;11.75;9.40;;;1.50;99.90;;;;;;5101912;28;20285;-83
2021/01/14 06:10:55;;;;;;;15.23;9.15;;;1.60;99.90;;;;;;5102313;28;20269;-82
2021/01/14 06:13:38;;;;;;;14.18;9.80;;;1.50;99.90;;;;;;5102247;28;20207;-81
2021/01/14 06:16:05;;;;;;;12.73;8.68;;;1.50;99.90;;;;;;5101526;28;20188;-83
2021/01/14 06:18:36;;;;;;;18.42;10.38;;;1.60;99.90;;;;;;5122367;22;20321;-81
2021/01/14 06:21:10;;;;;;;12.25;8.55;;;1.60;99.90;;;;;;5096928;28;20251;-81
2021/01/14 06:23:49;;;;;;;13.15;9.57;;;1.60;99.90;;;;;;5097215;28;20600;-82
2021/01/14 06:29:27;;;;;;;16.50;10.25;;;1.70;99.90;;;;;;5099110;28;20217;-82
2021/01/14 06:32:20;;;;;;;18.58;10.07;;;1.60;99.90;;;;;;5098972;28;20182;-82
2021/01/14 06:37:41;;;;;;;13.95;9.95;;;1.60;99.90;;;;;;5095466;28;20301;-82
2021/01/14 06:40:15;;;;;;;17.15;10.85;;;1.60;99.90;;;;;;5090257;28;20306;-82
2021/01/14 06:42:55;;;;;;;13.98;9.35;;;1.50;99.90;;;;;;5098512;28;20220;-82
2021/01/14 06:45:37;;;;;;;14.18;9.50;;;1.50;99.90;;;;;;5098342;28;20197;-82
2021/01/14 06:48:14;;;;;;;21.23;11.20;;;1.50;99.90;;;;;;5097870;28;20190;-82
2021/01/14 06:54:03;;;;;;;15.13;10.45;;;1.50;99.90;;;;;;5090212;28;20206;-82
2021/01/14 06:56:54;;;;;;;12.95;10.10;;;1.50;99.90;;;;;;5097998;28;20707;-82
2021/01/14 06:59:26;;;;;;;13.50;9.68;;;1.50;99.90;;;;;;5099314;28;20222;-81
2021/01/14 07:02:33;;;;;;;14.65;10.15;;;1.60;99.90;;;;;;5098213;28;20221;-81
2021/01/14 07:05:05;;;;;;;10.75;8.30;;;1.60;99.90;;;;;;5076993;28;20201;-81
2021/01/14 07:08:35;;;;;;;12.82;9.35;;;1.60;99.90;;;;;;5100114;28;20210;-82
2021/01/14 07:12:01;;;;;;;;;;;;;;;;;;;;;
2021/01/14 07:14:41;;;;;;;12.57;8.70;;;1.60;99.90;;;;;;5086051;28;20269;-82
2021/01/14 07:20:08;;;;;;;11.48;7.95;;;1.60;99.90;;;;;;5094834;28;20241;-82
2021/01/14 07:22:44;;;;;;;14.57;8.70;;;1.60;99.90;;;;;;5099315;28;20193;-82
2021/01/14 07:25:23;;;;;;;11.65;8.70;;;1.60;99.90;;;;;;5099278;28;20216;-82
2021/01/14 07:28:03;;;;;;;11.35;8.57;;;1.60;99.90;;;;;;5097871;28;20182;-82
2021/01/14 07:30:36;;;;;;;13.90;9.40;;;1.60;99.90;;;;;;5097746;28;20186;-82
2021/01/14 07:36:54;;;;;;;14.45;9.38;;;1.60;99.90;;;;;;5076634;28;20202;-82
2021/01/14 07:40:01;;;;;;;12.45;8.95;;;1.60;99.90;;;;;;5099448;28;20257;-82
2021/01/14 07:43:00;;;;;;;14.10;9.30;;;1.70;99.90;;;;;;5088963;28;20201;-81
2021/01/14 07:45:44;;;;;;;9.82;8.80;;;1.70;99.90;;;;;;5070580;28;20198;-82
2021/01/14 07:48:35;;;;;;;11.13;9.23;;;1.70;99.90;;;;;;5098610;28;20197;-81
2021/01/14 07:51:28;;;;;;;12.30;8.40;;;1.70;99.90;;;;;;5108824;28;20201;-82
2021/01/14 07:54:38;;;;;;;11.77;8.55;;;1.50;99.90;;;;;;5097818;28;20198;-82
2021/01/14 08:01:02;;;;;;;11.27;8.52;;;1.60;99.90;;;;;;5088605;28;20226;-83
2021/01/14 08:04:28;;;;;;;7.45;6.35;;;1.60;99.90;;;;;;5002273;28;20229;-81
2021/01/14 08:07:19;;;;;;;9.98;8.10;;;1.60;99.90;;;;;;5081992;28;20205;-81
2021/01/14 08:10:08;;;;;;;12.45;7.85;;;1.60;99.90;;;;;;5095323;28;20229;-82
2021/01/14 08:17:05;;;;;;;10.93;8.05;;;1.70;99.90;;;;;;5036394;28;20735;-82
2021/01/14 08:20:33;;;;;;;12.20;7.43;;;1.90;99.90;;;;;;5050526;28;20255;-82
2021/01/14 08:23:31;;;;;;;12.50;8.90;;;1.90;99.90;;;;;;5090663;28;20236;-83
2021/01/14 08:26:36;;;;;;;11.88;7.35;;;1.80;99.90;;;;;;5097646;28;20201;-82
2021/01/14 08:45:52;;;;;;;8.00;5.55;;;1.90;99.90;;;;;;5038080;28;20208;-80
2021/01/14 09:03:06;;;;;;;5.15;4.50;;;1.90;99.90;;;;;;4889073;29;20207;-82
2021/01/14 09:12:32;;;;;;;8.77;4.32;;;2.10;99.90;;;;;;5011415;28;20200;-81
2021/01/14 09:15:42;;;;;;;12.63;6.75;;;2.10;99.90;;;;;;5015662;28;20201;-81
2021/01/14 09:25:57;;;;;;;5.45;3.67;;;2.30;99.90;;;;;;5070973;28;20206;-84
2021/01/14 09:28:53;;;;;;;5.25;4.65;;;2.40;99.90;;;;;;5078237;28;20248;-82
2021/01/14 09:34:36;;;;;;;7.95;4.80;;;2.40;99.90;;;;;;5081098;28;20202;-80
2021/01/14 09:37:39;;;;;;;4.38;3.47;;;2.40;99.90;;;;;;5101753;28;20201;-83
2021/01/14 09:46:47;;;;;;;40.47;20.83;;;2.50;99.90;;;;;;5094745;28;20216;-82
2021/01/14 09:52:06;;;;;;;4.93;4.20;;;2.50;99.90;;;;;;5138794;22;20237;-79
2021/01/14 09:54:35;;;;;;;8.95;5.60;;;2.50;99.90;;;;;;5107182;28;20265;-81
2021/01/14 09:57:05;;;;;;;7.93;4.47;;;2.50;99.90;;;;;;5106476;28;20229;-80
2021/01/14 09:59:36;;;;;;;4.38;3.88;;;2.40;99.90;;;;;;5100707;28;20204;-79
2021/01/14 10:02:12;;;;;;;5.95;5.35;;;2.30;99.90;;;;;;5100608;28;20226;-80
2021/01/14 10:04:43;;;;;;;8.07;5.00;;;2.30;99.90;;;;;;5101352;28;20241;-79
2021/01/14 10:07:16;;;;;;;5.78;4.70;;;2.20;99.90;;;;;;5101582;28;20200;-80
2021/01/14 10:09:42;;;;;;;7.65;5.25;;;2.30;99.90;;;;;;5102273;28;20650;-79
2021/01/14 10:12:11;;;;;;;3.22;2.92;;;2.20;99.90;;;;;;5100913;28;20316;-80
2021/01/14 10:14:38;;;;;;;7.32;5.38;;;2.30;99.90;;;;;;5101333;28;20552;-79
2021/01/14 10:17:08;;;;;;;6.68;4.88;;;2.30;99.90;;;;;;5093151;28;20284;-80
2021/01/14 10:19:37;;;;;;;6.68;5.20;;;2.40;99.90;;;;;;5103060;28;20185;-80
2021/01/14 10:22:06;;;;;;;10.82;6.00;;;2.30;99.90;;;;;;5102011;28;20248;-80
2021/01/14 10:24:32;;;;;;;8.02;5.53;;;2.30;99.90;;;;;;5102142;28;20304;-80
2021/01/14 10:27:11;;;;;;;7.72;6.20;;;2.30;99.90;;;;;;5102639;28;20225;-79
2021/01/14 10:29:39;;;;;;;9.13;7.00;;;2.40;99.90;;;;;;5100862;28;20281;-80
2021/01/14 10:32:07;;;;;;;10.70;6.93;;;2.50;99.90;;;;;;5101430;28;20539;-80
2021/01/14 10:34:41;;;;;;;9.38;6.80;;;2.50;99.90;;;;;;5101455;28;20230;-80
2021/01/14 10:37:17;;;;;;;11.23;7.43;;;2.60;99.90;;;;;;5101071;28;20266;-80
2021/01/14 10:39:43;;;;;;;10.63;7.53;;;2.60;99.90;;;;;;5100401;28;20220;-79
2021/01/14 10:42:27;;;;;;;8.05;7.20;;;2.70;99.90;;;;;;5100594;28;20222;-79
2021/01/14 10:44:55;;;;;;;10.43;7.80;;;2.70;99.90;;;;;;5103054;28;20313;-80
2021/01/14 10:47:22;;;;;;;10.32;6.78;;;2.60;99.90;;;;;;5104648;28;20205;-80
2021/01/14 10:49:49;;;;;;;10.93;8.10;;;2.50;99.90;;;;;;5102651;28;20284;-79
2021/01/14 10:52:15;;;;;;;10.32;8.20;;;2.50;99.90;;;;;;5100899;28;20308;-79
2021/01/14 10:54:42;;;;;;;12.48;7.93;;;2.50;99.90;;;;;;5100723;28;20200;-81
2021/01/14 10:57:11;;;;;;;13.02;8.95;;;2.60;99.90;;;;;;5100145;28;20262;-80
2021/01/14 10:59:38;;;;;;;12.90;9.80;;;2.50;99.90;;;;;;5100311;28;20201;-79
2021/01/14 11:02:06;;;;;;;11.75;8.20;;;2.60;99.90;;;;;;5100965;28;20270;-78
2021/01/14 11:04:33;;;;;;;9.00;7.32;;;2.60;99.90;;;;;;5102280;28;20320;-79
2021/01/14 11:07:11;;;;;;;9.45;8.23;;;2.50;99.90;;;;;;5101510;28;20212;-80
2021/01/14 11:09:49;;;;;;;8.38;6.80;;;2.50;99.90;;;;;;5103549;28;20197;-78
2021/01/14 11:12:16;;;;;;;11.98;9.43;;;2.50;99.90;;;;;;5101407;28;20247;-78
2021/01/14 11:14:42;;;;;;;6.40;5.47;;;2.60;99.90;;;;;;5108339;28;20249;-80
2021/01/14 11:17:12;;;;;;;12.43;9.15;;;2.60;99.90;;;;;;5111728;28;20221;-78
2021/01/14 11:19:38;;;;;;;8.95;5.60;;;2.60;99.90;;;;;;5113844;28;20254;-79
2021/01/14 11:22:05;;;;;;;12.93;8.32;;;2.60;99.90;;;;;;5108939;28;20229;-81
2021/01/14 11:24:31;;;;;;;11.65;8.93;;;2.50;99.90;;;;;;5103318;28;20709;-81
2021/01/14 11:26:58;;;;;;;10.07;8.65;;;2.60;99.90;;;;;;5102822;28;20198;-79
2021/01/14 11:29:24;;;;;;;12.05;9.10;;;2.60;99.90;;;;;;5100968;28;20229;-79
2021/01/14 11:31:50;;;;;;;12.75;9.10;;;2.70;99.90;;;;;;5098165;28;20313;-80
2021/01/14 11:34:17;;;;;;;9.82;8.15;;;2.70;99.90;;;;;;5099072;28;20194;-80
2021/01/14 11:36:44;;;;;;;10.15;7.85;;;2.80;99.90;;;;;;5100994;28;20274;-81
2021/01/14 11:39:10;;;;;;;13.98;9.20;;;2.90;99.90;;;;;;5098824;28;20216;-80
2021/01/14 11:41:37;;;;;;;14.15;8.60;;;2.90;99.90;;;;;;5098979;28;20243;-82
2021/01/14 11:44:03;;;;;;;12.90;8.80;;;2.90;99.90;;;;;;5099979;28;20221;-82
2021/01/14 11:46:32;;;;;;;12.90;8.38;;;2.70;99.90;;;;;;5099073;28;20604;-82
2021/01/14 11:48:58;;;;;;;11.75;8.40;;;2.80;99.90;;;;;;5099942;28;20205;-80
2021/01/14 11:51:26;;;;;;;17.55;9.88;;;2.90;99.90;;;;;;5098033;28;20249;-81
2021/01/14 11:53:52;;;;;;;9.95;8.38;;;2.80;99.90;;;;;;5098140;28;20203;-81
2021/01/14 11:56:19;;;;;;;12.73;9.30;;;2.70;99.90;;;;;;5099050;28;20330;-80
2021/01/14 11:58:46;;;;;;;14.35;9.95;;;2.70;99.90;;;;;;5097458;28;20300;-80
2021/01/14 12:01:12;;;;;;;14.23;9.88;;;2.60;99.90;;;;;;5098462;28;20789;-80
2021/01/14 12:03:40;;;;;;;18.67;10.45;;;2.70;99.90;;;;;;5098483;28;20233;-82
2021/01/14 12:06:06;;;;;;;14.68;10.45;;;2.70;99.90;;;;;;5099226;28;20269;-80
2021/01/14 12:08:34;;;;;;;13.25;9.98;;;2.70;99.90;;;;;;5097455;28;20618;-79
2021/01/14 12:11:00;;;;;;;15.98;11.02;;;2.70;99.90;;;;;;5097926;28;20259;-81
2021/01/14 12:13:26;;;;;;;15.80;10.25;;;2.80;99.90;;;;;;5098307;28;20201;-82
2021/01/14 12:15:53;;;;;;;12.93;10.10;;;2.70;99.90;;;;;;5097635;28;20288;-81
2021/01/14 12:18:19;;;;;;;17.30;10.68;;;2.70;99.90;;;;;;5097818;28;20222;-81
2021/01/14 12:20:46;;;;;;;13.02;10.95;;;2.70;99.90;;;;;;5099608;28;20699;-82
2021/01/14 12:23:12;;;;;;;14.18;12.27;;;2.60;99.90;;;;;;5103551;28;20289;-81
2021/01/14 12:25:39;;;;;;;14.98;10.85;;;2.60;99.90;;;;;;5105820;28;20293;-79
2021/01/14 12:28:05;;;;;;;13.05;10.27;;;2.60;99.90;;;;;;5102336;28;20389;-79
2021/01/14 12:30:32;;;;;;;12.10;7.75;;;2.70;99.90;;;;;;5102238;28;20197;-79
2021/01/14 12:32:59;;;;;;;14.40;9.38;;;2.60;99.90;;;;;;5102285;28;20233;-80
2021/01/14 12:35:25;;;;;;;12.25;9.63;;;2.60;99.90;;;;;;5104042;28;20599;-78
2021/01/14 12:37:51;;;;;;;15.30;9.55;;;2.60;99.90;;;;;;5103854;28;20231;-79
2021/01/14 12:40:18;;;;;;;13.77;9.57;;;2.50;99.90;;;;;;5101895;28;20228;-79
2021/01/14 12:42:47;;;;;;;12.40;10.10;;;2.60;99.90;;;;;;5109533;28;20267;-80
2021/01/14 12:45:16;;;;;;;14.75;9.75;;;2.60;99.90;;;;;;5111296;28;20245;-80
2021/01/14 12:47:43;;;;;;;12.77;7.10;;;2.50;99.90;;;;;;5111058;28;20224;-79
2021/01/14 12:50:10;;;;;;;13.50;9.50;;;2.60;99.90;;;;;;5107985;28;20202;-82
2021/01/14 12:52:37;;;;;;;16.95;10.38;;;2.60;99.90;;;;;;5101411;28;20717;-83
2021/01/14 12:55:04;;;;;;;13.13;9.63;;;2.50;99.90;;;;;;5102068;28;20205;-82
2021/01/14 12:57:30;;;;;;;12.30;9.25;;;2.60;99.90;;;;;;5103524;28;20198;-81
2021/01/14 12:59:57;;;;;;;11.35;8.50;;;2.50;99.90;;;;;;5107505;28;20274;-80
2021/01/14 13:02:24;;;;;;;15.07;9.65;;;2.50;99.90;;;;;;5108989;28;20229;-79
2021/01/14 13:04:50;;;;;;;13.60;9.60;;;2.60;99.90;;;;;;5107856;28;20228;-80
2021/01/14 13:07:16;;;;;;;12.80;7.20;;;2.60;99.90;;;;;;5104245;28;20201;-79
2021/01/14 13:09:43;;;;;;;14.50;9.63;;;2.60;99.90;;;;;;5105994;28;20268;-81
2021/01/14 13:12:09;;;;;;;15.02;9.90;;;2.50;99.90;;;;;;5104522;28;20218;-80
2021/01/14 13:14:36;;;;;;;11.93;9.30;;;2.50;99.90;;;;;;5103414;28;20687;-82
2021/01/14 13:17:04;;;;;;;11.65;8.95;;;2.60;99.90;;;;;;5102605;28;20206;-81
2021/01/14 13:19:31;;;;;;;13.88;8.80;;;2.60;99.90;;;;;;5101741;28;20201;-81
2021/01/14 13:21:57;;;;;;;12.70;8.07;;;2.60;99.90;;;;;;5101811;28;20240;-81
2021/01/14 13:24:23;;;;;;;15.23;9.98;;;2.60;99.90;;;;;;5101065;28;20223;-81
2021/01/14 13:26:50;;;;;;;11.65;8.80;;;2.60;99.90;;;;;;5100184;28;20208;-81
2021/01/14 13:29:18;;;;;;;8.20;6.78;;;2.70;99.90;;;;;;5101594;28;20210;-82
2021/01/14 13:31:46;;;;;;;11.70;9.27;;;2.70;99.90;;;;;;5099895;28;20575;-82
2021/01/14 13:34:14;;;;;;;11.70;7.53;;;2.70;99.90;;;;;;5099839;28;20305;-81
2021/01/14 13:36:42;;;;;;;12.93;9.45;;;2.70;99.90;;;;;;5101462;28;20198;-82
2021/01/14 13:39:09;;;;;;;13.25;8.77;;;2.60;99.90;;;;;;5108353;28;20233;-82
2021/01/14 13:41:36;;;;;;;8.98;7.55;;;2.60;99.90;;;;;;5083305;28;20259;-81
2021/01/14 13:44:04;;;;;;;11.98;7.65;;;2.60;99.90;;;;;;5100872;28;20217;-82
2021/01/14 13:46:30;;;;;;;10.98;8.95;;;2.70;99.90;;;;;;5100699;28;20201;-82
2021/01/14 13:48:59;;;;;;;13.95;9.77;;;2.70;99.90;;;;;;5101972;28;20292;-82
2021/01/14 13:51:34;;;;;;;12.40;8.88;;;2.70;99.90;;;;;;5100210;28;20272;-81
2021/01/14 13:54:00;;;;;;;11.85;9.40;;;2.70;99.90;;;;;;5101539;28;20208;-82
2021/01/14 13:56:27;;;;;;;10.77;8.63;;;2.70;99.90;;;;;;5100283;28;20233;-82
2021/01/14 13:58:54;;;;;;;10.57;7.47;;;2.60;99.90;;;;;;5098822;28;20202;-81
2021/01/14 14:01:24;;;;;;;7.85;6.63;;;2.60;99.90;;;;;;5098706;28;20313;-82
2021/01/14 14:03:50;;;;;;;8.40;6.63;;;2.60;99.90;;;;;;5098578;28;20221;-82
2021/01/14 14:06:17;;;;;;;9.40;7.65;;;2.60;99.90;;;;;;5099004;28;20677;-81
2021/01/14 14:08:44;;;;;;;11.57;7.60;;;2.60;99.90;;;;;;5098685;28;20549;-81
2021/01/14 14:11:10;;;;;;;13.95;8.70;;;2.50;99.90;;;;;;5098509;28;20285;-80
2021/01/14 14:13:37;;;;;;;12.93;9.85;;;2.50;99.90;;;;;;5099023;28;20683;-81
2021/01/14 14:16:04;;;;;;;13.48;9.20;;;2.50;99.90;;;;;;5098874;28;20209;-81
2021/01/14 14:18:30;;;;;;;13.13;9.98;;;2.50;99.90;;;;;;5099052;28;20607;-81
2021/01/14 14:20:57;;;;;;;14.77;9.90;;;2.30;99.90;;;;;;5098308;28;20254;-81
2021/01/14 14:23:23;;;;;;;11.15;9.52;;;2.30;99.90;;;;;;5098356;28;20340;-80
2021/01/14 14:25:52;;;;;;;13.50;10.00;;;2.30;99.90;;;;;;5098432;28;20205;-81
2021/01/14 14:28:18;;;;;;;15.60;11.15;;;2.30;99.90;;;;;;5098522;28;20197;-81
2021/01/14 14:30:45;;;;;;;16.52;10.25;;;2.40;99.90;;;;;;5098833;28;20203;-81
2021/01/14 14:33:11;;;;;;;18.23;10.95;;;2.40;99.90;;;;;;5100819;28;20312;-81
2021/01/14 14:35:39;;;;;;;12.50;9.35;;;2.50;99.90;;;;;;5100534;28;20254;-81
2021/01/14 14:38:05;;;;;;;13.48;9.93;;;2.60;99.90;;;;;;5098652;28;20213;-81